sensor_id;sensor_type;location;lat;lon;timestamp;P1;durP1;ratioP1;P2;durP2;ratioP2
56173;SDS011;42058;52.308;20.924;2022-07-29T00:02:14;4.93;;;2.60;;
56173;SDS011;42058;52.308;20.924;2022-07-29T00:04:40;8.90;;;3.07;;
56173;SDS011;42058;52.308;20.924;2022-07-29T00:07:07;8.87;;;2.83;;
56173;SDS011;42058;52.308;20.924;2022-07-29T00:09:33;7.73;;;3.03;;
56173;SDS011;42058;52.308;20.924;2022-07-29T00:12:00;5.20;;;3.17;;
56173;SDS011;42058;52.308;20.924;2022-07-29T00:14:27;3.57;;;2.37;;
56173;SDS011;42058;52.308;20.924;2022-07-29T00:16:54;6.43;;;3.23;;
56173;SDS011;42058;52.308;20.924;2022-07-29T00:19:20;6.27;;;3.00;;
56173;SDS011;42058;52.308;20.924;2022-07-29T00:21:46;7.10;;;3.00;;
56173;SDS011;42058;52.308;20.924;2022-07-29T00:24:13;5.57;;;3.07;;
56173;SDS011;42058;52.308;20.924;2022-07-29T00:26:39;8.77;;;3.17;;
56173;SDS011;42058;52.308;20.924;2022-07-29T00:29:05;6.77;;;3.40;;
56173;SDS011;42058;52.308;20.924;2022-07-29T00:31:31;6.63;;;3.10;;
56173;SDS011;42058;52.308;20.924;2022-07-29T00:33:57;6.30;;;2.60;;
56173;SDS011;42058;52.308;20.924;2022-07-29T00:36:23;9.40;;;3.30;;
56173;SDS011;42058;52.308;20.924;2022-07-29T00:38:49;7.17;;;2.87;;
56173;SDS011;42058;52.308;20.924;2022-07-29T00:41:16;5.40;;;3.03;;
56173;SDS011;42058;52.308;20.924;2022-07-29T00:43:44;7.27;;;3.00;;
56173;SDS011;42058;52.308;20.924;2022-07-29T00:46:11;4.30;;;2.63;;
56173;SDS011;42058;52.308;20.924;2022-07-29T00:48:38;6.23;;;2.70;;
56173;SDS011;42058;52.308;20.924;2022-07-29T00:51:04;4.27;;;2.50;;
56173;SDS011;42058;52.308;20.924;2022-07-29T00:53:32;6.03;;;2.97;;
56173;SDS011;42058;52.308;20.924;2022-07-29T00:56:01;8.37;;;3.50;;
56173;SDS011;42058;52.308;20.924;2022-07-29T00:58:27;6.40;;;2.83;;
56173;SDS011;42058;52.308;20.924;2022-07-29T01:00:53;9.13;;;3.20;;
56173;SDS011;42058;52.308;20.924;2022-07-29T01:03:19;8.97;;;3.33;;
56173;SDS011;42058;52.308;20.924;2022-07-29T01:05:45;5.53;;;2.80;;
56173;SDS011;42058;52.308;20.924;2022-07-29T01:08:12;9.00;;;2.87;;
56173;SDS011;42058;52.308;20.924;2022-07-29T01:10:41;6.73;;;2.40;;
56173;SDS011;42058;52.308;20.924;2022-07-29T01:13:09;6.03;;;2.60;;
56173;SDS011;42058;52.308;20.924;2022-07-29T01:15:40;6.13;;;2.67;;
56173;SDS011;42058;52.308;20.924;2022-07-29T01:18:27;4.53;;;2.37;;
56173;SDS011;42058;52.308;20.924;2022-07-29T01:29:44;6.27;;;2.80;;
56173;SDS011;42058;52.308;20.924;2022-07-29T01:32:20;5.37;;;2.37;;
56173;SDS011;42058;52.308;20.924;2022-07-29T01:37:43;5.17;;;2.47;;
56173;SDS011;42058;52.308;20.924;2022-07-29T01:40:20;6.67;;;2.30;;
56173;SDS011;42058;52.308;20.924;2022-07-29T01:42:51;4.07;;;2.30;;
56173;SDS011;42058;52.308;20.924;2022-07-29T01:45:26;7.83;;;2.30;;
56173;SDS011;42058;52.308;20.924;2022-07-29T01:50:46;4.93;;;2.37;;
56173;SDS011;42058;52.308;20.924;2022-07-29T01:53:16;4.60;;;2.57;;
56173;SDS011;42058;52.308;20.924;2022-07-29T01:55:53;6.80;;;2.57;;
56173;SDS011;42058;52.308;20.924;2022-07-29T01:58:23;4.30;;;2.40;;
56173;SDS011;42058;52.308;20.924;2022-07-29T02:00:51;4.27;;;2.50;;
56173;SDS011;42058;52.308;20.924;2022-07-29T02:03:19;6.80;;;2.57;;
56173;SDS011;42058;52.308;20.924;2022-07-29T02:05:47;4.87;;;2.27;;
56173;SDS011;42058;52.308;20.924;2022-07-29T02:08:15;6.77;;;2.60;;
56173;SDS011;42058;52.308;20.924;2022-07-29T02:10:45;7.23;;;2.50;;
56173;SDS011;42058;52.308;20.924;2022-07-29T02:13:15;4.97;;;2.43;;
56173;SDS011;42058;52.308;20.924;2022-07-29T02:15:42;3.33;;;2.23;;
56173;SDS011;42058;52.308;20.924;2022-07-29T02:18:15;4.27;;;2.90;;
56173;SDS011;42058;52.308;20.924;2022-07-29T02:20:43;5.62;;;2.72;;
56173;SDS011;42058;52.308;20.924;2022-07-29T02:23:12;4.17;;;2.50;;
56173;SDS011;42058;52.308;20.924;2022-07-29T02:25:49;4.23;;;2.40;;
56173;SDS011;42058;52.308;20.924;2022-07-29T02:28:19;9.70;;;2.80;;
56173;SDS011;42058;52.308;20.924;2022-07-29T02:30:48;4.63;;;2.83;;
56173;SDS011;42058;52.308;20.924;2022-07-29T02:33:18;5.97;;;2.33;;
56173;SDS011;42058;52.308;20.924;2022-07-29T02:35:46;5.43;;;2.43;;
56173;SDS011;42058;52.308;20.924;2022-07-29T02:38:14;6.03;;;2.37;;
56173;SDS011;42058;52.308;20.924;2022-07-29T02:41:05;4.17;;;2.23;;
56173;SDS011;42058;52.308;20.924;2022-07-29T02:43:36;3.47;;;2.27;;
56173;SDS011;42058;52.308;20.924;2022-07-29T02:46:04;4.33;;;2.27;;
56173;SDS011;42058;52.308;20.924;2022-07-29T02:48:36;3.87;;;2.20;;
56173;SDS011;42058;52.308;20.924;2022-07-29T02:51:08;5.87;;;2.43;;
56173;SDS011;42058;52.308;20.924;2022-07-29T02:53:48;6.40;;;2.10;;
56173;SDS011;42058;52.308;20.924;2022-07-29T02:56:19;5.70;;;2.53;;
56173;SDS011;42058;52.308;20.924;2022-07-29T02:58:52;4.90;;;2.50;;
56173;SDS011;42058;52.308;20.924;2022-07-29T03:01:21;5.27;;;2.20;;
56173;SDS011;42058;52.308;20.924;2022-07-29T03:03:50;5.87;;;2.50;;
56173;SDS011;42058;52.308;20.924;2022-07-29T03:06:20;6.27;;;2.50;;
56173;SDS011;42058;52.308;20.924;2022-07-29T03:08:49;7.40;;;2.30;;
56173;SDS011;42058;52.308;20.924;2022-07-29T03:11:16;5.53;;;2.37;;
56173;SDS011;42058;52.308;20.924;2022-07-29T03:13:43;5.00;;;2.33;;
56173;SDS011;42058;52.308;20.924;2022-07-29T03:16:10;5.10;;;2.50;;
56173;SDS011;42058;52.308;20.924;2022-07-29T03:18:38;6.57;;;2.60;;
56173;SDS011;42058;52.308;20.924;2022-07-29T03:21:05;8.03;;;2.57;;
56173;SDS011;42058;52.308;20.924;2022-07-29T03:23:31;7.47;;;2.77;;
56173;SDS011;42058;52.308;20.924;2022-07-29T03:25:57;7.37;;;2.93;;
56173;SDS011;42058;52.308;20.924;2022-07-29T03:28:23;7.23;;;2.40;;
56173;SDS011;42058;52.308;20.924;2022-07-29T03:30:49;7.20;;;2.50;;
56173;SDS011;42058;52.308;20.924;2022-07-29T03:33:16;4.67;;;2.40;;
56173;SDS011;42058;52.308;20.924;2022-07-29T03:35:42;6.40;;;2.30;;
56173;SDS011;42058;52.308;20.924;2022-07-29T03:38:08;4.67;;;2.03;;
56173;SDS011;42058;52.308;20.924;2022-07-29T03:40:38;6.83;;;2.70;;
56173;SDS011;42058;52.308;20.924;2022-07-29T03:43:14;6.40;;;2.33;;
56173;SDS011;42058;52.308;20.924;2022-07-29T03:45:42;4.93;;;2.60;;
56173;SDS011;42058;52.308;20.924;2022-07-29T03:48:14;3.13;;;2.40;;
56173;SDS011;42058;52.308;20.924;2022-07-29T03:50:43;6.33;;;2.50;;
56173;SDS011;42058;52.308;20.924;2022-07-29T03:53:10;3.20;;;2.30;;
56173;SDS011;42058;52.308;20.924;2022-07-29T03:55:45;9.43;;;2.70;;
56173;SDS011;42058;52.308;20.924;2022-07-29T03:58:07;8.27;;;2.77;;
56173;SDS011;42058;52.308;20.924;2022-07-29T04:00:35;3.67;;;2.07;;
56173;SDS011;42058;52.308;20.924;2022-07-29T04:03:03;7.27;;;2.10;;
56173;SDS011;42058;52.308;20.924;2022-07-29T04:05:30;4.67;;;1.80;;
56173;SDS011;42058;52.308;20.924;2022-07-29T04:07:57;5.03;;;2.20;;
56173;SDS011;42058;52.308;20.924;2022-07-29T04:10:24;5.00;;;2.33;;
56173;SDS011;42058;52.308;20.924;2022-07-29T04:12:50;3.30;;;2.10;;
56173;SDS011;42058;52.308;20.924;2022-07-29T04:15:16;2.93;;;1.87;;
56173;SDS011;42058;52.308;20.924;2022-07-29T04:17:42;6.37;;;1.87;;
56173;SDS011;42058;52.308;20.924;2022-07-29T04:20:09;4.83;;;2.10;;
56173;SDS011;42058;52.308;20.924;2022-07-29T04:22:39;8.47;;;2.30;;
56173;SDS011;42058;52.308;20.924;2022-07-29T04:25:06;5.50;;;2.20;;
56173;SDS011;42058;52.308;20.924;2022-07-29T04:27:33;6.10;;;2.40;;
56173;SDS011;42058;52.308;20.924;2022-07-29T04:29:59;4.23;;;2.50;;
56173;SDS011;42058;52.308;20.924;2022-07-29T04:32:25;3.70;;;2.40;;
56173;SDS011;42058;52.308;20.924;2022-07-29T04:34:52;7.60;;;2.80;;
56173;SDS011;42058;52.308;20.924;2022-07-29T04:37:18;4.77;;;2.60;;
56173;SDS011;42058;52.308;20.924;2022-07-29T04:39:44;4.03;;;2.43;;
56173;SDS011;42058;52.308;20.924;2022-07-29T04:42:10;6.57;;;2.50;;
56173;SDS011;42058;52.308;20.924;2022-07-29T04:44:36;5.97;;;3.00;;
56173;SDS011;42058;52.308;20.924;2022-07-29T04:47:02;7.03;;;2.33;;
56173;SDS011;42058;52.308;20.924;2022-07-29T04:49:29;5.10;;;2.13;;
56173;SDS011;42058;52.308;20.924;2022-07-29T04:51:56;4.00;;;1.83;;
56173;SDS011;42058;52.308;20.924;2022-07-29T04:54:22;5.23;;;2.30;;
56173;SDS011;42058;52.308;20.924;2022-07-29T04:56:48;3.90;;;1.87;;
56173;SDS011;42058;52.308;20.924;2022-07-29T04:59:14;6.73;;;1.80;;
56173;SDS011;42058;52.308;20.924;2022-07-29T05:01:40;5.17;;;2.43;;
56173;SDS011;42058;52.308;20.924;2022-07-29T05:04:07;2.73;;;1.70;;
56173;SDS011;42058;52.308;20.924;2022-07-29T05:06:33;5.77;;;1.73;;
56173;SDS011;42058;52.308;20.924;2022-07-29T05:08:59;7.07;;;1.80;;
56173;SDS011;42058;52.308;20.924;2022-07-29T05:11:25;4.23;;;1.80;;
56173;SDS011;42058;52.308;20.924;2022-07-29T05:13:51;6.87;;;1.40;;
56173;SDS011;42058;52.308;20.924;2022-07-29T05:16:17;4.83;;;1.73;;
56173;SDS011;42058;52.308;20.924;2022-07-29T05:18:44;7.53;;;1.70;;
56173;SDS011;42058;52.308;20.924;2022-07-29T05:21:10;4.23;;;2.27;;
56173;SDS011;42058;52.308;20.924;2022-07-29T05:23:37;2.73;;;1.43;;
56173;SDS011;42058;52.308;20.924;2022-07-29T05:26:03;3.80;;;1.70;;
56173;SDS011;42058;52.308;20.924;2022-07-29T05:28:32;7.13;;;1.67;;
56173;SDS011;42058;52.308;20.924;2022-07-29T05:31:03;4.60;;;1.50;;
56173;SDS011;42058;52.308;20.924;2022-07-29T05:33:29;3.03;;;1.63;;
56173;SDS011;42058;52.308;20.924;2022-07-29T05:35:55;6.57;;;1.77;;
56173;SDS011;42058;52.308;20.924;2022-07-29T05:38:22;8.27;;;1.53;;
56173;SDS011;42058;52.308;20.924;2022-07-29T05:40:48;3.80;;;1.30;;
56173;SDS011;42058;52.308;20.924;2022-07-29T05:43:14;8.77;;;1.40;;
56173;SDS011;42058;52.308;20.924;2022-07-29T05:45:40;5.87;;;1.53;;
56173;SDS011;42058;52.308;20.924;2022-07-29T05:48:08;4.27;;;1.40;;
56173;SDS011;42058;52.308;20.924;2022-07-29T05:50:34;4.67;;;1.40;;
56173;SDS011;42058;52.308;20.924;2022-07-29T05:53:00;3.07;;;1.47;;
56173;SDS011;42058;52.308;20.924;2022-07-29T05:55:26;7.90;;;1.23;;
56173;SDS011;42058;52.308;20.924;2022-07-29T05:57:52;2.60;;;1.10;;
56173;SDS011;42058;52.308;20.924;2022-07-29T06:00:18;3.43;;;1.00;;
56173;SDS011;42058;52.308;20.924;2022-07-29T06:02:44;4.00;;;1.10;;
56173;SDS011;42058;52.308;20.924;2022-07-29T06:05:12;3.33;;;1.10;;
56173;SDS011;42058;52.308;20.924;2022-07-29T06:07:38;2.30;;;1.07;;
56173;SDS011;42058;52.308;20.924;2022-07-29T06:10:04;2.27;;;1.00;;
56173;SDS011;42058;52.308;20.924;2022-07-29T06:12:31;4.17;;;1.10;;
56173;SDS011;42058;52.308;20.924;2022-07-29T06:14:57;3.50;;;1.20;;
56173;SDS011;42058;52.308;20.924;2022-07-29T06:17:23;3.90;;;1.20;;
56173;SDS011;42058;52.308;20.924;2022-07-29T06:19:49;1.90;;;0.90;;
56173;SDS011;42058;52.308;20.924;2022-07-29T06:22:15;2.53;;;0.90;;
56173;SDS011;42058;52.308;20.924;2022-07-29T06:24:42;2.60;;;1.00;;
56173;SDS011;42058;52.308;20.924;2022-07-29T06:27:10;2.80;;;0.80;;
56173;SDS011;42058;52.308;20.924;2022-07-29T06:29:36;3.47;;;1.03;;
56173;SDS011;42058;52.308;20.924;2022-07-29T06:32:03;2.17;;;0.97;;
56173;SDS011;42058;52.308;20.924;2022-07-29T06:34:30;1.67;;;0.90;;
56173;SDS011;42058;52.308;20.924;2022-07-29T06:36:56;2.47;;;0.90;;
56173;SDS011;42058;52.308;20.924;2022-07-29T06:39:22;1.60;;;0.80;;
56173;SDS011;42058;52.308;20.924;2022-07-29T06:41:48;8.23;;;1.10;;
56173;SDS011;42058;52.308;20.924;2022-07-29T06:44:16;8.53;;;0.90;;
56173;SDS011;42058;52.308;20.924;2022-07-29T06:46:43;3.30;;;1.00;;
56173;SDS011;42058;52.308;20.924;2022-07-29T06:49:09;2.03;;;1.10;;
56173;SDS011;42058;52.308;20.924;2022-07-29T06:51:36;3.23;;;0.83;;
56173;SDS011;42058;52.308;20.924;2022-07-29T06:54:02;3.10;;;0.97;;
56173;SDS011;42058;52.308;20.924;2022-07-29T06:56:30;1.60;;;0.87;;
56173;SDS011;42058;52.308;20.924;2022-07-29T06:58:58;3.40;;;1.17;;
56173;SDS011;42058;52.308;20.924;2022-07-29T07:01:24;4.00;;;0.80;;
56173;SDS011;42058;52.308;20.924;2022-07-29T07:03:50;2.70;;;0.90;;
56173;SDS011;42058;52.308;20.924;2022-07-29T07:06:17;4.33;;;0.87;;
56173;SDS011;42058;52.308;20.924;2022-07-29T07:08:43;2.30;;;0.83;;
56173;SDS011;42058;52.308;20.924;2022-07-29T07:11:09;1.10;;;0.70;;
56173;SDS011;42058;52.308;20.924;2022-07-29T07:13:35;2.20;;;0.83;;
56173;SDS011;42058;52.308;20.924;2022-07-29T07:16:01;2.27;;;0.87;;
56173;SDS011;42058;52.308;20.924;2022-07-29T07:18:28;1.53;;;0.80;;
56173;SDS011;42058;52.308;20.924;2022-07-29T07:20:54;7.40;;;0.97;;
56173;SDS011;42058;52.308;20.924;2022-07-29T07:23:21;2.43;;;0.70;;
56173;SDS011;42058;52.308;20.924;2022-07-29T07:25:48;2.97;;;0.90;;
56173;SDS011;42058;52.308;20.924;2022-07-29T07:28:14;5.47;;;0.90;;
56173;SDS011;42058;52.308;20.924;2022-07-29T07:30:40;2.90;;;0.80;;
56173;SDS011;42058;52.308;20.924;2022-07-29T07:33:06;1.40;;;0.73;;
56173;SDS011;42058;52.308;20.924;2022-07-29T07:35:32;2.40;;;0.77;;
56173;SDS011;42058;52.308;20.924;2022-07-29T07:37:58;4.63;;;0.70;;
56173;SDS011;42058;52.308;20.924;2022-07-29T07:40:25;2.43;;;1.00;;
56173;SDS011;42058;52.308;20.924;2022-07-29T07:42:51;6.57;;;0.90;;
56173;SDS011;42058;52.308;20.924;2022-07-29T07:45:17;6.53;;;0.90;;
56173;SDS011;42058;52.308;20.924;2022-07-29T07:47:43;5.80;;;0.90;;
56173;SDS011;42058;52.308;20.924;2022-07-29T07:50:10;6.27;;;0.80;;
56173;SDS011;42058;52.308;20.924;2022-07-29T07:52:47;5.63;;;0.93;;
56173;SDS011;42058;52.308;20.924;2022-07-29T07:55:16;4.93;;;1.10;;
56173;SDS011;42058;52.308;20.924;2022-07-29T07:57:42;10.87;;;0.97;;
56173;SDS011;42058;52.308;20.924;2022-07-29T08:00:09;3.67;;;0.80;;
56173;SDS011;42058;52.308;20.924;2022-07-29T08:02:40;6.33;;;1.10;;
56173;SDS011;42058;52.308;20.924;2022-07-29T08:05:08;2.60;;;0.83;;
56173;SDS011;42058;52.308;20.924;2022-07-29T08:07:35;1.93;;;1.07;;
56173;SDS011;42058;52.308;20.924;2022-07-29T08:10:01;2.53;;;0.87;;
56173;SDS011;42058;52.308;20.924;2022-07-29T08:12:27;2.43;;;0.70;;
56173;SDS011;42058;52.308;20.924;2022-07-29T08:14:53;1.97;;;0.90;;
56173;SDS011;42058;52.308;20.924;2022-07-29T08:17:19;4.10;;;0.80;;
56173;SDS011;42058;52.308;20.924;2022-07-29T08:19:46;4.37;;;0.90;;
56173;SDS011;42058;52.308;20.924;2022-07-29T08:22:14;1.90;;;0.90;;
56173;SDS011;42058;52.308;20.924;2022-07-29T08:24:40;5.87;;;1.00;;
56173;SDS011;42058;52.308;20.924;2022-07-29T08:27:10;6.37;;;1.00;;
56173;SDS011;42058;52.308;20.924;2022-07-29T08:29:36;3.33;;;0.90;;
56173;SDS011;42058;52.308;20.924;2022-07-29T08:32:03;6.47;;;0.90;;
56173;SDS011;42058;52.308;20.924;2022-07-29T08:34:30;2.23;;;1.00;;
56173;SDS011;42058;52.308;20.924;2022-07-29T08:36:56;2.37;;;0.73;;
56173;SDS011;42058;52.308;20.924;2022-07-29T08:39:22;3.67;;;0.90;;
56173;SDS011;42058;52.308;20.924;2022-07-29T08:41:49;2.17;;;1.00;;
56173;SDS011;42058;52.308;20.924;2022-07-29T08:44:19;3.57;;;0.60;;
56173;SDS011;42058;52.308;20.924;2022-07-29T08:46:47;2.07;;;0.90;;
56173;SDS011;42058;52.308;20.924;2022-07-29T08:49:15;4.07;;;0.87;;
56173;SDS011;42058;52.308;20.924;2022-07-29T08:51:43;4.20;;;0.90;;
56173;SDS011;42058;52.308;20.924;2022-07-29T08:54:09;2.80;;;0.97;;
56173;SDS011;42058;52.308;20.924;2022-07-29T08:56:37;3.57;;;0.90;;
56173;SDS011;42058;52.308;20.924;2022-07-29T08:59:05;3.17;;;1.00;;
56173;SDS011;42058;52.308;20.924;2022-07-29T09:01:33;3.33;;;1.00;;
56173;SDS011;42058;52.308;20.924;2022-07-29T09:04:03;3.17;;;0.80;;
56173;SDS011;42058;52.308;20.924;2022-07-29T09:06:33;6.77;;;1.33;;
56173;SDS011;42058;52.308;20.924;2022-07-29T09:09:03;1.50;;;0.93;;
56173;SDS011;42058;52.308;20.924;2022-07-29T09:11:29;2.20;;;0.90;;
56173;SDS011;42058;52.308;20.924;2022-07-29T09:13:58;2.93;;;0.90;;
56173;SDS011;42058;52.308;20.924;2022-07-29T09:16:24;2.97;;;1.17;;
56173;SDS011;42058;52.308;20.924;2022-07-29T09:18:50;1.87;;;1.00;;
56173;SDS011;42058;52.308;20.924;2022-07-29T09:21:17;2.33;;;0.80;;
56173;SDS011;42058;52.308;20.924;2022-07-29T09:26:36;3.20;;;0.90;;
56173;SDS011;42058;52.308;20.924;2022-07-29T09:31:46;2.00;;;1.00;;
56173;SDS011;42058;52.308;20.924;2022-07-29T09:34:16;2.63;;;1.07;;
56173;SDS011;42058;52.308;20.924;2022-07-29T09:36:49;3.13;;;0.80;;
56173;SDS011;42058;52.308;20.924;2022-07-29T09:42:01;3.07;;;0.90;;
56173;SDS011;42058;52.308;20.924;2022-07-29T09:44:40;2.10;;;0.80;;
56173;SDS011;42058;52.308;20.924;2022-07-29T09:47:11;2.20;;;0.90;;
56173;SDS011;42058;52.308;20.924;2022-07-29T09:49:50;1.33;;;0.70;;
56173;SDS011;42058;52.308;20.924;2022-07-29T09:52:25;5.03;;;0.90;;
56173;SDS011;42058;52.308;20.924;2022-07-29T09:54:53;3.30;;;0.90;;
56173;SDS011;42058;52.308;20.924;2022-07-29T09:57:27;3.70;;;0.80;;
56173;SDS011;42058;52.308;20.924;2022-07-29T10:00:01;2.73;;;1.00;;
56173;SDS011;42058;52.308;20.924;2022-07-29T10:02:34;2.57;;;0.97;;
56173;SDS011;42058;52.308;20.924;2022-07-29T10:05:04;0.80;;;0.60;;
56173;SDS011;42058;52.308;20.924;2022-07-29T10:07:47;1.90;;;0.70;;
56173;SDS011;42058;52.308;20.924;2022-07-29T10:10:20;0.97;;;0.70;;
56173;SDS011;42058;52.308;20.924;2022-07-29T10:12:58;2.50;;;0.80;;
56173;SDS011;42058;52.308;20.924;2022-07-29T10:15:27;2.97;;;0.80;;
56173;SDS011;42058;52.308;20.924;2022-07-29T10:17:58;1.50;;;0.60;;
56173;SDS011;42058;52.308;20.924;2022-07-29T10:20:26;4.70;;;1.00;;
56173;SDS011;42058;52.308;20.924;2022-07-29T10:22:53;3.23;;;0.90;;
56173;SDS011;42058;52.308;20.924;2022-07-29T10:25:21;3.33;;;1.13;;
56173;SDS011;42058;52.308;20.924;2022-07-29T10:27:48;2.30;;;0.63;;
56173;SDS011;42058;52.308;20.924;2022-07-29T10:30:31;4.53;;;0.67;;
56173;SDS011;42058;52.308;20.924;2022-07-29T10:33:41;4.27;;;0.63;;
56173;SDS011;42058;52.308;20.924;2022-07-29T10:42:12;1.60;;;0.63;;
56173;SDS011;42058;52.308;20.924;2022-07-29T10:44:48;2.43;;;0.70;;
56173;SDS011;42058;52.308;20.924;2022-07-29T10:47:25;3.40;;;0.70;;
56173;SDS011;42058;52.308;20.924;2022-07-29T10:55:35;2.57;;;0.80;;
56173;SDS011;42058;52.308;20.924;2022-07-29T10:58:21;2.17;;;0.80;;
56173;SDS011;42058;52.308;20.924;2022-07-29T11:00:50;1.70;;;0.63;;
56173;SDS011;42058;52.308;20.924;2022-07-29T11:06:11;3.72;;;0.70;;
56173;SDS011;42058;52.308;20.924;2022-07-29T11:08:37;3.50;;;0.80;;
56173;SDS011;42058;52.308;20.924;2022-07-29T11:13:52;4.23;;;0.80;;
56173;SDS011;42058;52.308;20.924;2022-07-29T11:16:21;2.90;;;0.80;;
56173;SDS011;42058;52.308;20.924;2022-07-29T11:21:44;3.33;;;0.80;;
56173;SDS011;42058;52.308;20.924;2022-07-29T11:29:51;1.27;;;0.77;;
56173;SDS011;42058;52.308;20.924;2022-07-29T11:32:21;2.47;;;0.90;;
56173;SDS011;42058;52.308;20.924;2022-07-29T11:37:45;1.87;;;0.60;;
56173;SDS011;42058;52.308;20.924;2022-07-29T11:40:13;2.00;;;0.80;;
56173;SDS011;42058;52.308;20.924;2022-07-29T11:42:42;1.43;;;0.70;;
56173;SDS011;42058;52.308;20.924;2022-07-29T11:45:14;2.70;;;0.80;;
56173;SDS011;42058;52.308;20.924;2022-07-29T11:47:52;0.70;;;0.60;;
56173;SDS011;42058;52.308;20.924;2022-07-29T11:50:30;3.83;;;0.80;;
56173;SDS011;42058;52.308;20.924;2022-07-29T11:53:02;1.93;;;0.70;;
56173;SDS011;42058;52.308;20.924;2022-07-29T11:55:37;3.43;;;0.67;;
56173;SDS011;42058;52.308;20.924;2022-07-29T11:58:05;0.83;;;0.60;;
56173;SDS011;42058;52.308;20.924;2022-07-29T12:00:34;1.80;;;0.73;;
56173;SDS011;42058;52.308;20.924;2022-07-29T12:03:07;4.57;;;0.80;;
56173;SDS011;42058;52.308;20.924;2022-07-29T12:05:36;3.83;;;0.50;;
56173;SDS011;42058;52.308;20.924;2022-07-29T12:08:20;1.00;;;0.50;;
56173;SDS011;42058;52.308;20.924;2022-07-29T12:10:48;0.80;;;0.50;;
56173;SDS011;42058;52.308;20.924;2022-07-29T12:13:17;1.33;;;0.70;;
56173;SDS011;42058;52.308;20.924;2022-07-29T12:15:57;1.67;;;0.60;;
56173;SDS011;42058;52.308;20.924;2022-07-29T12:18:22;1.30;;;0.87;;
56173;SDS011;42058;52.308;20.924;2022-07-29T12:20:56;2.57;;;0.73;;
56173;SDS011;42058;52.308;20.924;2022-07-29T12:23:25;0.77;;;0.50;;
56173;SDS011;42058;52.308;20.924;2022-07-29T12:25:51;1.93;;;0.83;;
56173;SDS011;42058;52.308;20.924;2022-07-29T12:28:17;3.40;;;0.60;;
56173;SDS011;42058;52.308;20.924;2022-07-29T12:30:46;3.30;;;0.90;;
56173;SDS011;42058;52.308;20.924;2022-07-29T12:33:16;0.93;;;0.60;;
56173;SDS011;42058;52.308;20.924;2022-07-29T12:35:58;5.70;;;0.77;;
56173;SDS011;42058;52.308;20.924;2022-07-29T12:38:23;2.73;;;0.80;;
56173;SDS011;42058;52.308;20.924;2022-07-29T12:40:49;0.87;;;0.50;;
56173;SDS011;42058;52.308;20.924;2022-07-29T12:43:19;0.70;;;0.57;;
56173;SDS011;42058;52.308;20.924;2022-07-29T12:45:49;1.47;;;0.63;;
56173;SDS011;42058;52.308;20.924;2022-07-29T12:51:04;0.87;;;0.70;;
56173;SDS011;42058;52.308;20.924;2022-07-29T12:53:34;2.10;;;0.80;;
56173;SDS011;42058;52.308;20.924;2022-07-29T12:56:03;0.40;;;0.40;;
56173;SDS011;42058;52.308;20.924;2022-07-29T12:58:34;1.67;;;0.80;;
56173;SDS011;42058;52.308;20.924;2022-07-29T13:01:04;3.53;;;0.90;;
56173;SDS011;42058;52.308;20.924;2022-07-29T13:03:46;2.43;;;0.80;;
56173;SDS011;42058;52.308;20.924;2022-07-29T13:06:30;1.77;;;0.90;;
56173;SDS011;42058;52.308;20.924;2022-07-29T13:09:14;3.43;;;0.60;;
56173;SDS011;42058;52.308;20.924;2022-07-29T13:19:44;3.12;;;0.70;;
56173;SDS011;42058;52.308;20.924;2022-07-29T13:22:14;3.17;;;0.63;;
56173;SDS011;42058;52.308;20.924;2022-07-29T13:24:53;4.97;;;0.70;;
56173;SDS011;42058;52.308;20.924;2022-07-29T13:27:25;3.90;;;0.77;;
56173;SDS011;42058;52.308;20.924;2022-07-29T13:29:54;4.27;;;0.77;;
56173;SDS011;42058;52.308;20.924;2022-07-29T13:32:25;1.13;;;0.53;;
56173;SDS011;42058;52.308;20.924;2022-07-29T13:34:53;5.60;;;1.00;;
56173;SDS011;42058;52.308;20.924;2022-07-29T13:37:23;3.03;;;0.80;;
56173;SDS011;42058;52.308;20.924;2022-07-29T13:39:51;1.90;;;0.80;;
56173;SDS011;42058;52.308;20.924;2022-07-29T13:42:18;3.07;;;0.60;;
56173;SDS011;42058;52.308;20.924;2022-07-29T13:44:44;2.70;;;0.57;;
56173;SDS011;42058;52.308;20.924;2022-07-29T13:47:10;1.53;;;0.60;;
56173;SDS011;42058;52.308;20.924;2022-07-29T13:49:37;4.27;;;0.77;;
56173;SDS011;42058;52.308;20.924;2022-07-29T13:52:03;3.53;;;0.70;;
56173;SDS011;42058;52.308;20.924;2022-07-29T13:54:31;1.90;;;0.67;;
56173;SDS011;42058;52.308;20.924;2022-07-29T13:56:57;1.73;;;0.80;;
56173;SDS011;42058;52.308;20.924;2022-07-29T13:59:23;1.63;;;0.87;;
56173;SDS011;42058;52.308;20.924;2022-07-29T14:01:49;0.47;;;0.47;;
56173;SDS011;42058;52.308;20.924;2022-07-29T14:04:16;4.13;;;0.70;;
56173;SDS011;42058;52.308;20.924;2022-07-29T14:06:42;1.90;;;0.87;;
56173;SDS011;42058;52.308;20.924;2022-07-29T14:09:08;0.83;;;0.60;;
56173;SDS011;42058;52.308;20.924;2022-07-29T14:11:35;1.67;;;0.70;;
56173;SDS011;42058;52.308;20.924;2022-07-29T14:14:03;5.80;;;0.80;;
56173;SDS011;42058;52.308;20.924;2022-07-29T14:16:30;1.03;;;0.70;;
56173;SDS011;42058;52.308;20.924;2022-07-29T14:18:56;2.23;;;0.70;;
56173;SDS011;42058;52.308;20.924;2022-07-29T14:21:22;1.97;;;0.70;;
56173;SDS011;42058;52.308;20.924;2022-07-29T14:23:48;4.60;;;0.90;;
56173;SDS011;42058;52.308;20.924;2022-07-29T14:26:16;1.93;;;0.70;;
56173;SDS011;42058;52.308;20.924;2022-07-29T14:28:42;6.73;;;0.93;;
56173;SDS011;42058;52.308;20.924;2022-07-29T14:31:10;0.90;;;0.60;;
56173;SDS011;42058;52.308;20.924;2022-07-29T14:33:36;0.67;;;0.50;;
56173;SDS011;42058;52.308;20.924;2022-07-29T14:36:04;0.83;;;0.60;;
56173;SDS011;42058;52.308;20.924;2022-07-29T14:38:30;0.70;;;0.60;;
56173;SDS011;42058;52.308;20.924;2022-07-29T14:40:56;2.90;;;0.60;;
56173;SDS011;42058;52.308;20.924;2022-07-29T14:43:22;3.37;;;0.90;;
56173;SDS011;42058;52.308;20.924;2022-07-29T14:45:48;3.93;;;0.80;;
56173;SDS011;42058;52.308;20.924;2022-07-29T14:48:14;3.57;;;0.60;;
56173;SDS011;42058;52.308;20.924;2022-07-29T14:50:40;0.50;;;0.50;;
56173;SDS011;42058;52.308;20.924;2022-07-29T14:53:06;4.87;;;0.60;;
56173;SDS011;42058;52.308;20.924;2022-07-29T14:55:32;5.27;;;0.70;;
56173;SDS011;42058;52.308;20.924;2022-07-29T14:57:59;2.43;;;0.60;;
56173;SDS011;42058;52.308;20.924;2022-07-29T15:00:25;4.83;;;0.70;;
56173;SDS011;42058;52.308;20.924;2022-07-29T15:02:51;9.20;;;0.70;;
56173;SDS011;42058;52.308;20.924;2022-07-29T15:05:17;0.53;;;0.53;;
56173;SDS011;42058;52.308;20.924;2022-07-29T15:07:44;0.80;;;0.40;;
56173;SDS011;42058;52.308;20.924;2022-07-29T15:10:10;1.43;;;0.93;;
56173;SDS011;42058;52.308;20.924;2022-07-29T15:12:36;0.97;;;0.57;;
56173;SDS011;42058;52.308;20.924;2022-07-29T15:15:02;2.20;;;0.87;;
56173;SDS011;42058;52.308;20.924;2022-07-29T15:17:29;3.90;;;0.70;;
56173;SDS011;42058;52.308;20.924;2022-07-29T15:19:55;1.33;;;0.70;;
56173;SDS011;42058;52.308;20.924;2022-07-29T15:22:21;3.20;;;0.70;;
56173;SDS011;42058;52.308;20.924;2022-07-29T15:24:47;0.63;;;0.53;;
56173;SDS011;42058;52.308;20.924;2022-07-29T15:27:13;3.27;;;0.90;;
56173;SDS011;42058;52.308;20.924;2022-07-29T15:29:44;0.93;;;0.83;;
56173;SDS011;42058;52.308;20.924;2022-07-29T15:32:08;1.53;;;0.80;;
56173;SDS011;42058;52.308;20.924;2022-07-29T15:34:34;1.33;;;0.70;;
56173;SDS011;42058;52.308;20.924;2022-07-29T15:37:02;2.03;;;0.73;;
56173;SDS011;42058;52.308;20.924;2022-07-29T15:39:31;1.90;;;0.80;;
56173;SDS011;42058;52.308;20.924;2022-07-29T15:41:57;7.47;;;1.00;;
56173;SDS011;42058;52.308;20.924;2022-07-29T15:44:25;1.20;;;0.90;;